createdAt,value
2018-03-14T00:01:51.812Z,7.17
2018-03-14T00:04:26.969Z,2.83
2018-03-14T00:07:01.920Z,4.50
2018-03-14T00:09:37.368Z,3.90
2018-03-14T00:12:12.228Z,4.20
2018-03-14T00:14:47.184Z,4.50
2018-03-14T00:17:22.777Z,3.30
2018-03-14T00:19:57.748Z,3.90
2018-03-14T00:22:35.667Z,4.20
2018-03-14T00:25:11.029Z,2.07
2018-03-14T00:27:46.000Z,3.60
2018-03-14T00:30:20.956Z,4.90
2018-03-14T00:32:56.082Z,5.60
2018-03-14T00:35:31.045Z,5.20
2018-03-14T00:38:06.212Z,4.30
2018-03-14T00:40:41.267Z,6.17
2018-03-14T00:43:16.611Z,6.05
2018-03-14T00:45:51.737Z,1.57
2018-03-14T00:48:27.010Z,3.60
2018-03-14T00:51:01.855Z,4.00
2018-03-14T00:53:36.992Z,5.07
2018-03-14T00:56:11.941Z,2.77
2018-03-14T00:58:48.206Z,4.23
2018-03-14T01:01:22.820Z,5.43
2018-03-14T01:03:57.867Z,2.90
2018-03-14T01:06:33.060Z,4.28
2018-03-14T01:09:07.921Z,3.17
2018-03-14T01:11:43.212Z,3.27
2018-03-14T01:14:18.288Z,3.97
2018-03-14T01:16:53.340Z,2.47
2018-03-14T01:19:28.395Z,4.17
2018-03-14T01:22:04.464Z,4.97
2018-03-14T01:24:40.121Z,1.52
2018-03-14T01:27:14.987Z,4.20
2018-03-14T01:29:49.837Z,2.87
2018-03-14T01:32:25.287Z,7.70
2018-03-14T01:35:00.816Z,4.00
2018-03-14T01:37:35.866Z,5.43
2018-03-14T01:40:10.793Z,3.92
2018-03-14T01:42:45.960Z,4.87
2018-03-14T01:45:21.017Z,4.30
2018-03-14T01:47:56.485Z,4.83
2018-03-14T01:50:31.831Z,4.18
2018-03-14T01:53:30.098Z,7.00
2018-03-14T01:56:04.964Z,8.07
2018-03-14T01:58:40.016Z,6.87
2018-03-14T02:01:15.047Z,6.77
2018-03-14T02:03:50.204Z,6.27
2018-03-14T02:06:25.347Z,5.03
2018-03-14T02:09:00.071Z,6.63
2018-03-14T02:11:35.207Z,8.25
2018-03-14T02:14:10.168Z,5.33
2018-03-14T02:16:45.241Z,11.70
2018-03-14T02:19:19.764Z,5.60
2018-03-14T02:21:55.175Z,4.37
2018-03-14T02:24:30.528Z,6.77
2018-03-14T02:27:05.288Z,5.70
2018-03-14T02:29:41.019Z,7.47
2018-03-14T02:32:16.100Z,6.30
2018-03-14T02:34:51.083Z,4.97
2018-03-14T02:37:26.348Z,4.17
2018-03-14T02:40:01.059Z,4.33
2018-03-14T02:42:36.315Z,7.72
2018-03-14T02:45:11.675Z,4.27
2018-03-14T02:47:47.084Z,3.60
2018-03-14T02:50:22.146Z,3.03
2018-03-14T02:52:57.305Z,7.00
2018-03-14T02:55:32.331Z,6.77
2018-03-14T02:58:07.365Z,4.13
2018-03-14T03:00:42.352Z,8.65
2018-03-14T03:03:17.381Z,6.40
2018-03-14T03:05:52.616Z,5.13
2018-03-14T03:08:27.476Z,3.70
2018-03-14T03:11:02.159Z,3.07
2018-03-14T03:13:37.387Z,6.03
2018-03-14T03:16:11.800Z,3.60
2018-03-14T03:18:47.112Z,9.80
2018-03-14T03:21:22.420Z,3.77
2018-03-14T03:23:57.507Z,5.90
2018-03-14T03:26:32.500Z,4.37
2018-03-14T03:29:07.684Z,4.70
2018-03-14T03:31:43.217Z,5.05
2018-03-14T03:34:18.179Z,4.53
2018-03-14T03:36:53.724Z,4.23
2018-03-14T03:39:28.544Z,5.00
2018-03-14T03:42:03.472Z,3.13
2018-03-14T03:44:38.768Z,5.67
2018-03-14T03:47:14.431Z,4.30
2018-03-14T03:49:48.778Z,5.43
2018-03-14T03:52:25.563Z,4.87
2018-03-14T03:55:00.221Z,5.90
2018-03-14T03:57:35.480Z,5.95
2018-03-14T04:00:10.514Z,4.27
2018-03-14T04:02:45.753Z,3.37
2018-03-14T04:05:20.311Z,4.37
2018-03-14T04:07:55.588Z,5.87
2018-03-14T04:10:30.543Z,6.47
2018-03-14T04:13:06.108Z,10.25
2018-03-14T04:15:41.396Z,8.43
2018-03-14T04:18:15.725Z,6.00
2018-03-14T04:20:50.856Z,5.53
2018-03-14T04:23:26.316Z,3.87
2018-03-14T04:26:01.281Z,4.20
2018-03-14T04:28:36.300Z,6.07
2018-03-14T04:31:11.296Z,4.00
2018-03-14T04:33:46.288Z,7.43
2018-03-14T04:36:21.425Z,8.27
2018-03-14T04:38:56.414Z,4.90
2018-03-14T04:41:31.641Z,5.33
2018-03-14T04:44:06.705Z,7.63
2018-03-14T04:46:42.249Z,7.78
2018-03-14T04:49:17.353Z,2.80
2018-03-14T04:51:52.329Z,5.83
2018-03-14T04:54:27.607Z,6.70
2018-03-14T04:57:02.448Z,7.57
2018-03-14T04:59:37.567Z,5.57
2018-03-14T05:02:12.102Z,5.53
2018-03-14T05:04:47.416Z,4.87
2018-03-14T05:07:22.387Z,4.90
2018-03-14T05:09:57.296Z,6.85
2018-03-14T05:12:32.704Z,6.47
2018-03-14T05:15:07.499Z,4.40
2018-03-14T05:17:42.491Z,4.93
2018-03-14T05:20:17.313Z,6.47
2018-03-14T05:22:52.451Z,8.47
2018-03-14T05:25:27.576Z,3.53
2018-03-14T05:28:02.444Z,6.07
2018-03-14T05:30:37.675Z,5.17
2018-03-14T05:33:12.536Z,9.07
2018-03-14T05:35:47.537Z,5.83
2018-03-14T05:38:22.517Z,8.93
2018-03-14T05:40:57.506Z,6.10
2018-03-14T05:43:32.772Z,5.83
2018-03-14T05:46:07.472Z,6.33
2018-03-14T05:48:42.801Z,4.70
2018-03-14T05:51:17.588Z,5.37
2018-03-14T05:53:52.600Z,3.60
2018-03-14T05:56:27.824Z,6.73
2018-03-14T05:59:02.561Z,7.93
2018-03-14T06:01:37.395Z,8.32
2018-03-14T06:04:12.433Z,8.27
2018-03-14T06:06:47.466Z,7.80
2018-03-14T06:09:22.480Z,4.22
2018-03-14T06:11:57.561Z,8.27
2018-03-14T06:14:32.477Z,5.15
2018-03-14T06:17:07.536Z,11.33
2018-03-14T06:19:42.876Z,5.40
2018-03-14T06:22:17.645Z,8.63
2018-03-14T06:24:52.633Z,4.83
2018-03-14T06:27:27.640Z,6.20
2018-03-14T06:30:02.622Z,4.20
2018-03-14T06:32:37.834Z,5.73
2018-03-14T06:35:12.880Z,6.20
2018-03-14T06:37:47.916Z,5.93
2018-03-14T06:40:23.067Z,6.50
2018-03-14T06:42:58.019Z,9.07
2018-03-14T06:45:32.948Z,5.30
2018-03-14T06:48:07.776Z,6.67
2018-03-14T06:50:42.724Z,7.40
2018-03-14T06:53:17.784Z,4.00
2018-03-14T06:55:52.632Z,7.37
2018-03-14T07:01:43.512Z,5.93
2018-03-14T07:04:29.966Z,8.10
2018-03-14T07:07:04.276Z,5.53
2018-03-14T07:09:39.609Z,8.35
2018-03-14T07:12:14.226Z,7.50
2018-03-14T07:14:49.176Z,5.23
2018-03-14T07:17:24.069Z,10.07
2018-03-14T07:19:58.818Z,7.67
2018-03-14T07:22:33.516Z,9.50
2018-03-14T07:25:07.836Z,7.13
2018-03-14T07:27:43.021Z,7.07
2018-03-14T07:30:17.778Z,6.57
2018-03-14T07:32:52.691Z,6.13
2018-03-14T07:35:27.623Z,6.28
2018-03-14T07:38:02.147Z,7.17
2018-03-14T07:40:37.856Z,6.30
2018-03-14T07:43:12.290Z,7.13
2018-03-14T07:45:47.338Z,9.20
2018-03-14T07:48:22.315Z,4.73
2018-03-14T07:50:57.045Z,6.30
2018-03-14T07:53:32.042Z,8.10
2018-03-14T07:56:06.877Z,6.73
2018-03-14T07:58:42.098Z,7.23
2018-03-14T08:01:17.823Z,3.90
2018-03-14T08:03:52.889Z,6.67
2018-03-14T08:06:27.929Z,7.53
2018-03-14T08:09:02.469Z,5.90
2018-03-14T08:11:37.297Z,12.03
2018-03-14T08:14:12.149Z,5.70
2018-03-14T08:16:47.004Z,8.17
2018-03-14T08:19:21.940Z,2.93
2018-03-14T08:21:56.935Z,8.50
2018-03-14T08:24:32.142Z,5.43
2018-03-14T08:27:06.708Z,4.20
2018-03-14T08:29:41.745Z,5.12
2018-03-14T08:32:16.854Z,9.43
2018-03-14T08:34:51.829Z,4.00
2018-03-14T08:37:27.045Z,4.60
2018-03-14T08:40:01.869Z,6.78
2018-03-14T08:42:36.411Z,4.63
2018-03-14T08:45:11.269Z,8.00
2018-03-14T08:47:46.120Z,9.37
2018-03-14T08:50:21.157Z,8.20
2018-03-14T08:52:56.230Z,6.17
2018-03-14T08:55:31.472Z,5.20
2018-03-14T08:58:06.195Z,5.80
2018-03-14T09:00:41.220Z,7.60
2018-03-14T09:03:15.973Z,19.23
2018-03-14T09:05:50.888Z,11.90
2018-03-14T09:08:26.265Z,3.63
2018-03-14T09:11:00.919Z,8.63
2018-03-14T09:13:36.180Z,10.65
2018-03-14T09:16:11.061Z,23.53
2018-03-14T09:18:45.693Z,4.70
2018-03-14T09:21:21.027Z,5.37
2018-03-14T09:23:55.842Z,6.20
2018-03-14T09:26:30.889Z,7.32
2018-03-14T09:29:05.962Z,8.23
2018-03-14T09:31:41.126Z,8.80
2018-03-14T09:34:15.664Z,11.43
2018-03-14T09:36:50.541Z,7.40
2018-03-14T09:39:25.968Z,13.00
2018-03-14T09:42:00.984Z,7.60
2018-03-14T09:44:35.812Z,3.22
2018-03-14T09:47:10.651Z,4.00
2018-03-14T09:49:45.503Z,9.07
2018-03-14T09:52:20.479Z,3.83
2018-03-14T09:54:55.529Z,44.87
2018-03-14T09:57:30.313Z,11.70
2018-03-14T10:00:04.893Z,6.20
2018-03-14T10:02:40.297Z,8.82
2018-03-14T10:05:15.247Z,4.20
2018-03-14T10:07:49.780Z,4.47
2018-03-14T10:10:24.615Z,6.10
2018-03-14T10:13:00.001Z,4.10
2018-03-14T10:15:34.960Z,4.45
2018-03-14T10:18:10.001Z,3.80
2018-03-14T10:20:45.423Z,4.90
2018-03-14T10:23:20.496Z,2.13
2018-03-14T10:25:55.383Z,4.57
2018-03-14T10:28:30.419Z,8.20
2018-03-14T10:31:05.340Z,7.80
2018-03-14T10:33:40.412Z,2.50
2018-03-14T10:36:15.573Z,3.03
2018-03-14T10:38:50.292Z,9.07
2018-03-14T10:41:26.443Z,4.93
2018-03-14T10:44:01.508Z,5.10
2018-03-14T10:46:36.516Z,2.73
2018-03-14T10:49:11.198Z,5.90
2018-03-14T10:51:46.219Z,3.67
2018-03-14T10:54:21.155Z,5.63
2018-03-14T10:56:55.652Z,3.23
2018-03-14T10:59:30.399Z,4.40
2018-03-14T11:02:10.427Z,6.50
2018-03-14T11:04:45.663Z,3.23
2018-03-14T11:07:20.596Z,5.43
2018-03-14T11:09:55.424Z,3.13
2018-03-14T11:12:30.472Z,7.90
2018-03-14T11:15:04.975Z,6.30
2018-03-14T11:17:40.479Z,2.65
2018-03-14T11:20:15.304Z,3.75
2018-03-14T11:22:49.839Z,3.87
2018-03-14T11:25:24.787Z,4.00
2018-03-14T11:28:00.135Z,3.50
2018-03-14T11:30:34.647Z,4.17
2018-03-14T11:33:09.703Z,4.63
2018-03-14T11:35:44.633Z,7.47
2018-03-14T11:38:19.596Z,5.77
2018-03-14T11:40:54.600Z,4.30
2018-03-14T11:43:29.532Z,7.13
2018-03-14T11:46:03.986Z,3.50
2018-03-14T11:48:39.564Z,7.17
2018-03-14T11:51:14.302Z,3.73
2018-03-14T11:53:49.329Z,6.03
2018-03-14T11:56:23.760Z,7.03
2018-03-14T11:58:58.632Z,4.87
2018-03-14T12:01:34.051Z,5.63
2018-03-14T12:04:09.379Z,3.03
2018-03-14T12:06:44.308Z,4.40
2018-03-14T12:09:18.747Z,8.63
2018-03-14T12:11:53.679Z,6.33
2018-03-14T12:14:28.604Z,5.63
2018-03-14T12:17:03.555Z,5.93
2018-03-14T12:19:38.263Z,7.05
2018-03-14T12:22:18.319Z,4.23
2018-03-14T12:24:52.858Z,3.37
2018-03-14T12:27:27.684Z,4.23
2018-03-14T12:30:02.519Z,6.80
2018-03-14T12:32:37.652Z,5.78
2018-03-14T12:35:12.073Z,5.00
2018-03-14T12:37:47.118Z,3.93
2018-03-14T12:40:22.347Z,4.25
2018-03-14T12:42:57.272Z,3.87
2018-03-14T12:45:31.903Z,3.17
2018-03-14T12:48:06.785Z,6.70
2018-03-14T12:50:42.008Z,5.10
2018-03-14T12:53:16.855Z,3.57
2018-03-14T12:55:51.803Z,5.47
2018-03-14T12:58:26.951Z,6.70
2018-03-14T13:01:01.578Z,5.97
2018-03-14T13:03:36.159Z,6.30
2018-03-14T13:06:11.380Z,6.30
2018-03-14T13:08:46.008Z,3.90
2018-03-14T13:11:20.944Z,3.57
2018-03-14T13:13:55.753Z,6.37
2018-03-14T13:16:30.803Z,7.50
2018-03-14T13:19:05.660Z,4.13
2018-03-14T13:21:40.464Z,3.70
2018-03-14T13:24:16.024Z,7.63
2018-03-14T13:26:50.572Z,4.20
2018-03-14T13:29:26.843Z,11.00
2018-03-14T13:32:01.685Z,8.98
2018-03-14T13:34:36.770Z,8.90
2018-03-14T13:37:11.596Z,4.17
2018-03-14T13:39:46.586Z,12.90
2018-03-14T13:42:21.239Z,4.60
2018-03-14T13:44:56.090Z,9.83
2018-03-14T13:47:31.302Z,3.12
2018-03-14T13:50:05.664Z,6.53
2018-03-14T13:52:40.965Z,3.93
2018-03-14T13:55:15.791Z,4.20
2018-03-14T13:57:50.755Z,5.73
2018-03-14T14:00:26.985Z,8.73
2018-03-14T14:03:02.616Z,4.00
2018-03-14T14:05:37.644Z,8.30
2018-03-14T14:08:12.664Z,8.50
2018-03-14T14:10:47.879Z,6.57
2018-03-14T14:13:22.604Z,10.85
2018-03-14T14:15:57.725Z,7.27
2018-03-14T14:18:32.835Z,13.70
2018-03-14T14:21:07.700Z,6.40
2018-03-14T14:23:42.364Z,4.80
2018-03-14T14:26:17.189Z,5.90
2018-03-14T14:28:52.271Z,4.40
2018-03-14T14:31:27.283Z,8.40
2018-03-14T14:34:02.246Z,4.60
2018-03-14T14:36:37.608Z,10.10
2018-03-14T14:39:12.154Z,7.00
2018-03-14T14:41:46.924Z,4.70
2018-03-14T14:44:22.870Z,5.20
2018-03-14T14:46:58.020Z,6.47
2018-03-14T14:49:32.869Z,3.70
2018-03-14T14:52:07.688Z,6.50
2018-03-14T14:54:42.699Z,7.30
2018-03-14T14:57:17.233Z,3.67
2018-03-14T14:59:51.989Z,8.53
2018-03-14T15:02:27.183Z,6.67
2018-03-14T15:05:02.009Z,5.60
2018-03-14T15:07:36.956Z,6.05
2018-03-14T15:10:11.667Z,6.47
2018-03-14T15:12:46.209Z,4.70
2018-03-14T15:15:21.162Z,4.03
2018-03-14T15:17:55.880Z,4.53
2018-03-14T15:20:30.809Z,2.93
2018-03-14T15:23:05.759Z,8.80
2018-03-14T15:25:40.983Z,4.43
2018-03-14T15:28:15.917Z,6.40
2018-03-14T15:30:50.893Z,3.87
2018-03-14T15:33:25.235Z,4.00
2018-03-14T15:35:59.879Z,3.70
2018-03-14T15:38:35.124Z,5.75
2018-03-14T15:41:10.052Z,3.47
2018-03-14T15:43:45.051Z,3.30
2018-03-14T15:46:19.887Z,3.53
2018-03-14T15:48:54.949Z,7.83
2018-03-14T15:51:29.776Z,7.90
2018-03-14T15:54:04.797Z,4.15
2018-03-14T15:56:39.644Z,9.18
2018-03-14T15:59:14.510Z,4.67
2018-03-14T16:01:49.222Z,3.73
2018-03-14T16:04:24.004Z,9.80
2018-03-14T16:06:58.970Z,6.23
2018-03-14T16:09:34.119Z,8.48
2018-03-14T16:15:05.012Z,5.03
2018-03-14T16:17:40.230Z,3.25
2018-03-14T16:20:15.255Z,7.17
2018-03-14T16:22:50.097Z,4.87
2018-03-14T16:25:25.053Z,4.10
2018-03-14T16:28:00.005Z,5.17
2018-03-14T16:30:35.020Z,5.80
2018-03-14T16:33:09.970Z,6.43
2018-03-14T16:35:45.079Z,5.57
2018-03-14T16:38:19.667Z,4.43
2018-03-14T16:40:54.589Z,4.03
2018-03-14T16:43:29.520Z,5.00
2018-03-14T16:46:04.959Z,5.10
2018-03-14T16:48:40.019Z,5.43
2018-03-14T16:51:14.832Z,4.93
2018-03-14T16:53:49.861Z,8.43
2018-03-14T16:56:24.502Z,13.27
2018-03-14T16:58:59.981Z,7.70
2018-03-14T17:01:35.012Z,9.75
2018-03-14T17:04:09.452Z,12.33
2018-03-14T17:06:44.389Z,13.53
2018-03-14T17:09:19.530Z,14.53
2018-03-14T17:11:54.472Z,14.03
2018-03-14T17:14:29.664Z,14.97
2018-03-14T17:17:05.097Z,15.33
2018-03-14T17:19:40.160Z,18.30
2018-03-14T17:22:15.078Z,14.57
2018-03-14T17:24:50.127Z,16.40
2018-03-14T17:27:25.134Z,16.43
2018-03-14T17:30:00.404Z,20.10
2018-03-14T17:32:35.360Z,18.00
2018-03-14T17:35:10.218Z,18.70
2018-03-14T17:37:45.156Z,16.30
2018-03-14T17:40:19.673Z,20.07
2018-03-14T17:42:54.536Z,20.70
2018-03-14T17:45:29.644Z,20.33
2018-03-14T17:48:04.034Z,18.43
2018-03-14T17:50:38.566Z,20.92
2018-03-14T17:53:13.736Z,21.90
2018-03-14T17:55:48.579Z,19.60
2018-03-14T17:58:23.706Z,20.00
2018-03-14T18:00:58.558Z,15.53
2018-03-14T18:03:33.515Z,16.80
2018-03-14T18:06:08.323Z,15.50
2018-03-14T18:08:43.753Z,14.70
2018-03-14T18:11:18.529Z,17.37
2018-03-14T18:13:53.276Z,16.73
2018-03-14T18:16:28.026Z,12.73
2018-03-14T18:19:02.468Z,16.73
2018-03-14T18:21:38.096Z,18.25
2018-03-14T18:24:13.184Z,15.10
2018-03-14T18:26:48.172Z,10.73
2018-03-14T18:29:22.608Z,12.00
2018-03-14T18:31:57.286Z,13.70
2018-03-14T18:34:32.451Z,13.57
2018-03-14T18:37:07.101Z,12.35
2018-03-14T18:39:42.295Z,12.48
2018-03-14T18:42:17.232Z,10.30
2018-03-14T18:44:51.331Z,12.47
2018-03-14T18:47:25.759Z,13.20
2018-03-14T18:50:01.373Z,11.48
2018-03-14T18:52:36.770Z,12.10
2018-03-14T18:55:11.616Z,11.87
2018-03-14T18:57:46.291Z,14.30
2018-03-14T19:00:21.561Z,16.03
2018-03-14T19:02:56.447Z,15.93
2018-03-14T19:05:31.548Z,13.62
2018-03-14T19:08:06.569Z,17.30
2018-03-14T19:10:41.299Z,12.50
2018-03-14T19:13:16.351Z,13.17
2018-03-14T19:15:51.496Z,14.93
2018-03-14T19:18:27.497Z,14.40
2018-03-14T19:21:02.743Z,13.73
2018-03-14T19:23:37.875Z,12.88
2018-03-14T19:26:13.334Z,17.23
2018-03-14T19:28:48.437Z,12.97
2018-03-14T19:31:23.592Z,14.33
2018-03-14T19:33:58.207Z,12.60
2018-03-14T19:36:33.231Z,15.13
2018-03-14T19:39:08.363Z,14.43
2018-03-14T19:41:43.142Z,14.70
2018-03-14T19:44:17.709Z,14.67
2018-03-14T19:46:52.031Z,12.30
2018-03-14T19:49:27.804Z,11.55
2018-03-14T19:52:02.641Z,12.07
2018-03-14T19:54:37.896Z,16.97
2018-03-14T19:57:12.464Z,9.40
2018-03-14T19:59:47.381Z,12.20
2018-03-14T20:02:21.730Z,11.30
2018-03-14T20:04:56.947Z,10.83
2018-03-14T20:07:32.515Z,10.00
2018-03-14T20:10:07.479Z,8.43
2018-03-14T20:12:42.710Z,12.03
2018-03-14T20:15:17.978Z,7.17
2018-03-14T20:17:53.304Z,7.85
2018-03-14T20:20:27.980Z,6.73
2018-03-14T20:23:03.407Z,8.15
2018-03-14T20:25:37.927Z,8.80
2018-03-14T20:28:12.517Z,10.07
2018-03-14T20:30:47.507Z,9.83
2018-03-14T20:33:22.491Z,14.40
2018-03-14T20:35:57.522Z,7.80
2018-03-14T20:38:32.756Z,14.07
2018-03-14T20:41:07.327Z,7.67
2018-03-14T20:43:42.513Z,8.30
2018-03-14T20:46:16.987Z,11.30
2018-03-14T20:48:52.412Z,9.43
2018-03-14T20:51:27.940Z,10.70
2018-03-14T20:54:02.653Z,11.40
2018-03-14T20:56:37.878Z,10.93
2018-03-14T20:59:12.250Z,12.53
2018-03-14T21:01:47.737Z,13.60
2018-03-14T21:04:23.449Z,12.15
2018-03-14T21:06:58.613Z,11.30
2018-03-14T21:09:33.838Z,12.87
2018-03-14T21:12:08.880Z,14.10
2018-03-14T21:14:43.851Z,13.73
2018-03-14T21:17:18.856Z,14.13
2018-03-14T21:19:53.907Z,12.80
2018-03-14T21:22:29.639Z,12.90
2018-03-14T21:25:04.330Z,12.70
2018-03-14T21:27:38.957Z,12.70
2018-03-14T21:30:13.820Z,13.33
2018-03-14T21:32:48.851Z,11.57
2018-03-14T21:35:24.001Z,13.10
2018-03-14T21:37:58.970Z,11.17
2018-03-14T21:40:33.988Z,11.90
2018-03-14T21:43:08.637Z,14.82
2018-03-14T21:45:43.550Z,12.40
2018-03-14T21:48:18.672Z,16.27
2018-03-14T21:50:53.633Z,15.23
2018-03-14T21:53:29.099Z,12.77
2018-03-14T21:56:06.399Z,13.67
2018-03-14T21:58:41.226Z,14.70
2018-03-14T22:01:15.502Z,14.50
2018-03-14T22:03:50.759Z,16.77
2018-03-14T22:06:25.709Z,12.90
2018-03-14T22:09:00.692Z,17.80
2018-03-14T22:11:36.006Z,19.10
2018-03-14T22:14:15.070Z,15.33
2018-03-14T22:16:50.301Z,15.13
2018-03-14T22:19:24.773Z,22.20
2018-03-14T22:21:59.235Z,17.13
2018-03-14T22:24:34.642Z,15.45
2018-03-14T22:27:09.739Z,17.63
2018-03-14T22:29:45.059Z,19.40
2018-03-14T22:32:20.315Z,18.20
2018-03-14T22:34:55.067Z,15.30
2018-03-14T22:37:29.769Z,17.77
2018-03-14T22:40:04.821Z,18.33
2018-03-14T22:42:40.048Z,16.00
2018-03-14T22:45:15.079Z,17.23
2018-03-14T22:47:50.247Z,15.63
2018-03-14T22:50:25.781Z,11.75
2018-03-14T22:53:00.728Z,16.50
2018-03-14T22:55:35.768Z,12.85
2018-03-14T22:58:10.694Z,16.83
2018-03-14T23:00:45.001Z,14.13
2018-03-14T23:03:19.750Z,15.73
2018-03-14T23:05:54.664Z,13.15
2018-03-14T23:08:30.088Z,17.70
2018-03-14T23:11:04.902Z,14.73
2018-03-14T23:13:40.141Z,13.60
2018-03-14T23:16:15.172Z,11.60
2018-03-14T23:18:50.264Z,14.00
2018-03-14T23:21:25.714Z,11.93
2018-03-14T23:24:00.720Z,10.80
2018-03-14T23:26:35.442Z,11.40
2018-03-14T23:29:10.378Z,10.90
2018-03-14T23:31:44.934Z,12.40
2018-03-14T23:34:19.912Z,9.30
2018-03-14T23:36:54.848Z,10.40
2018-03-14T23:39:30.158Z,9.20
2018-03-14T23:42:04.978Z,10.53
2018-03-14T23:44:39.711Z,10.98
2018-03-14T23:47:14.824Z,9.93
2018-03-14T23:49:49.974Z,15.10
2018-03-14T23:52:25.134Z,10.23
2018-03-14T23:55:00.856Z,7.90
2018-03-14T23:57:35.927Z,7.68
